Time;durP1;ratioP1;P1;durP2;ratioP2;P2;SDS_P1;SDS_P2;PMS_P1;PMS_P2;Temp;Humidity;BMP_temperature;BMP_pressure;BME280_temperature;BME280_humidity;BME280_pressure;Samples;Min_cycle;Max_cycle;Signal;HPM_P1;HPM_P2
2022/07/23 00:01:23;;;;;;;12.60;3.53;;;13.50;99.90;;;;;;5055953;28;20136;-76
2022/07/23 00:03:49;;;;;;;7.15;3.95;;;13.40;99.90;;;;;;5051295;28;20064;-76
2022/07/23 00:06:15;;;;;;;6.85;3.75;;;13.40;99.90;;;;;;5051136;28;20116;-76
2022/07/23 00:08:41;;;;;;;10.43;3.38;;;13.40;99.90;;;;;;5050668;28;21001;-76
2022/07/23 00:11:07;;;;;;;9.73;3.60;;;13.40;99.90;;;;;;5050750;28;20095;-76
2022/07/23 00:13:33;;;;;;;4.93;3.58;;;13.50;99.90;;;;;;5050349;28;20052;-75
2022/07/23 00:15:59;;;;;;;6.45;3.58;;;13.40;99.90;;;;;;5070087;28;20049;-76
2022/07/23 00:18:25;;;;;;;5.25;3.35;;;13.50;99.90;;;;;;5068917;28;20136;-76
2022/07/23 00:20:51;;;;;;;6.82;3.72;;;13.60;99.90;;;;;;5070668;28;20128;-76
2022/07/23 00:23:17;;;;;;;7.82;4.03;;;13.30;99.90;;;;;;5070550;28;20091;-76
2022/07/23 00:25:44;;;;;;;6.18;4.05;;;13.40;99.90;;;;;;5068587;28;20044;-76
2022/07/23 00:28:10;;;;;;;9.45;4.85;;;13.40;99.90;;;;;;5068627;28;20052;-75
2022/07/23 00:30:36;;;;;;;7.75;4.40;;;13.40;99.90;;;;;;5068770;28;20509;-76
2022/07/23 00:33:05;;;;;;;7.90;4.80;;;13.40;99.90;;;;;;5070535;28;20094;-75
2022/07/23 00:35:34;;;;;;;12.38;4.97;;;13.30;99.90;;;;;;5070338;28;20074;-75
2022/07/23 00:38:00;;;;;;;8.77;4.57;;;13.30;99.90;;;;;;5070428;28;20747;-76
2022/07/23 00:40:29;;;;;;;10.18;5.28;;;13.50;99.90;;;;;;5070134;28;20047;-75
2022/07/23 00:42:55;;;;;;;6.00;4.40;;;13.30;99.90;;;;;;5070218;28;20066;-76
2022/07/23 00:45:21;;;;;;;7.55;4.65;;;13.40;99.90;;;;;;5069564;28;20487;-76
2022/07/23 00:47:47;;;;;;;6.20;4.53;;;13.30;99.90;;;;;;5070291;28;20070;-76
2022/07/23 00:50:13;;;;;;;12.93;5.85;;;13.30;99.90;;;;;;5069943;28;20123;-75
2022/07/23 00:52:40;;;;;;;5.97;4.60;;;13.40;99.90;;;;;;5070229;28;20123;-75
2022/07/23 00:55:07;;;;;;;10.80;5.07;;;13.20;99.90;;;;;;5070127;28;20156;-76
2022/07/23 00:57:34;;;;;;;8.45;4.53;;;13.20;99.90;;;;;;5068525;28;20044;-76
2022/07/23 00:59:59;;;;;;;11.32;4.15;;;13.10;99.90;;;;;;5066309;28;20033;-76
2022/07/23 01:02:26;;;;;;;9.32;3.95;;;13.10;99.90;;;;;;5049760;28;20044;-77
2022/07/23 01:04:52;;;;;;;11.52;4.30;;;13.00;99.90;;;;;;5049698;28;20055;-76
2022/07/23 01:07:18;;;;;;;10.10;3.88;;;13.00;99.90;;;;;;5049905;28;20045;-76
2022/07/23 01:09:45;;;;;;;9.80;3.90;;;12.90;99.90;;;;;;5049933;28;20442;-75
2022/07/23 01:12:11;;;;;;;7.90;4.20;;;12.90;99.90;;;;;;5049422;28;20045;-76
2022/07/23 01:14:37;;;;;;;6.07;4.05;;;12.90;99.90;;;;;;5049691;28;20048;-76
2022/07/23 01:17:02;;;;;;;7.00;3.95;;;13.00;99.90;;;;;;5049981;28;20747;-76
2022/07/23 01:19:28;;;;;;;13.73;3.95;;;12.70;99.90;;;;;;5048916;28;20045;-75
2022/07/23 01:21:56;;;;;;;12.57;3.75;;;12.70;99.90;;;;;;5059949;28;20041;-75
2022/07/23 01:24:22;;;;;;;6.50;3.83;;;12.60;99.90;;;;;;5069596;28;20109;-74
2022/07/23 01:26:48;;;;;;;9.25;4.20;;;12.60;99.90;;;;;;5068351;28;20450;-76
2022/07/23 01:29:15;;;;;;;9.95;3.65;;;12.50;99.90;;;;;;5069631;28;20053;-74
2022/07/23 01:31:41;;;;;;;9.68;4.03;;;12.40;99.90;;;;;;5069634;28;20061;-75
2022/07/23 01:34:07;;;;;;;8.80;4.43;;;12.30;99.90;;;;;;5069757;28;20044;-75
2022/07/23 01:36:36;;;;;;;5.75;3.42;;;12.30;99.90;;;;;;5069883;28;20082;-76
2022/07/23 01:39:07;;;;;;;8.40;3.72;;;12.20;99.90;;;;;;5056491;28;20540;-76
2022/07/23 01:41:33;;;;;;;13.75;4.15;;;12.10;99.90;;;;;;5052531;28;20048;-75
2022/07/23 01:43:58;;;;;;;6.20;3.75;;;12.20;99.90;;;;;;5054098;28;20044;-76
2022/07/23 01:46:24;;;;;;;6.60;3.72;;;12.10;99.90;;;;;;5053257;28;20041;-76
2022/07/23 01:48:50;;;;;;;6.35;4.43;;;12.00;99.90;;;;;;5053395;28;20114;-75
2022/07/23 01:51:15;;;;;;;10.20;3.90;;;12.00;99.90;;;;;;5053322;28;20083;-75
2022/07/23 01:53:41;;;;;;;11.90;4.03;;;11.90;99.90;;;;;;5053287;28;20055;-76
2022/07/23 01:56:07;;;;;;;8.00;4.15;;;11.90;99.90;;;;;;5053355;28;20152;-75
2022/07/23 01:58:33;;;;;;;8.23;3.97;;;11.90;99.90;;;;;;5052715;28;20091;-75
2022/07/23 02:00:58;;;;;;;8.13;3.85;;;11.80;99.90;;;;;;5052453;28;20041;-75
2022/07/23 02:03:24;;;;;;;7.10;3.53;;;11.70;99.90;;;;;;5053162;28;20369;-75
2022/07/23 02:05:51;;;;;;;11.07;4.15;;;11.70;99.90;;;;;;5053019;28;20384;-75
2022/07/23 02:08:17;;;;;;;9.35;4.43;;;11.70;99.90;;;;;;5053088;28;20403;-75
2022/07/23 02:10:43;;;;;;;9.32;4.25;;;11.70;99.90;;;;;;5062035;28;20570;-75
2022/07/23 02:13:08;;;;;;;5.95;3.60;;;11.60;99.90;;;;;;5072214;28;20147;-76
2022/07/23 02:15:34;;;;;;;9.10;3.40;;;11.80;99.90;;;;;;5070940;28;20088;-76
2022/07/23 02:18:00;;;;;;;7.10;3.47;;;11.50;99.90;;;;;;5055765;28;20059;-75
2022/07/23 02:20:26;;;;;;;8.20;3.70;;;11.40;99.90;;;;;;5052718;28;20120;-76
2022/07/23 02:22:51;;;;;;;7.05;4.00;;;11.40;99.90;;;;;;5070301;28;20501;-76
2022/07/23 02:25:17;;;;;;;8.38;4.38;;;11.40;99.90;;;;;;5072590;28;20132;-75
2022/07/23 02:27:43;;;;;;;7.30;3.67;;;11.40;99.90;;;;;;5072649;28;20118;-74
2022/07/23 02:30:09;;;;;;;5.90;3.42;;;11.40;99.90;;;;;;5072354;28;20388;-75
2022/07/23 02:32:35;;;;;;;9.65;4.45;;;11.30;99.90;;;;;;5067914;28;20073;-74
2022/07/23 02:35:02;;;;;;;8.75;4.40;;;11.30;99.90;;;;;;5072620;28;20045;-75
2022/07/23 02:37:28;;;;;;;7.18;4.75;;;11.30;99.90;;;;;;5059489;28;20048;-75
2022/07/23 02:39:54;;;;;;;10.55;5.10;;;11.30;99.90;;;;;;5051301;28;20049;-75
2022/07/23 02:42:20;;;;;;;12.57;5.55;;;11.30;99.90;;;;;;5052445;28;20048;-75
2022/07/23 02:44:45;;;;;;;9.75;5.15;;;11.30;99.90;;;;;;5068395;28;20037;-76
2022/07/23 02:47:11;;;;;;;9.63;5.30;;;11.30;99.90;;;;;;5054577;28;20141;-76
2022/07/23 02:49:37;;;;;;;7.80;4.57;;;11.40;99.90;;;;;;5071792;28;20048;-77
2022/07/23 02:52:03;;;;;;;9.77;5.43;;;11.30;99.90;;;;;;5065088;28;20033;-76
2022/07/23 02:54:28;;;;;;;7.10;5.03;;;11.40;99.90;;;;;;5050869;28;20040;-76
2022/07/23 02:56:54;;;;;;;14.63;6.22;;;11.40;99.90;;;;;;5052146;28;20124;-76
2022/07/23 02:59:20;;;;;;;11.38;5.60;;;11.40;99.90;;;;;;5050649;28;20085;-73
2022/07/23 03:01:45;;;;;;;13.35;4.97;;;11.40;99.90;;;;;;5051638;28;20427;-77
2022/07/23 03:04:11;;;;;;;8.90;5.05;;;11.40;99.90;;;;;;5052107;28;20049;-76
2022/07/23 03:06:37;;;;;;;10.60;4.65;;;11.40;99.90;;;;;;5050783;28;20060;-76
2022/07/23 03:09:04;;;;;;;18.05;5.55;;;11.60;99.90;;;;;;5053990;28;20049;-76
2022/07/23 03:11:30;;;;;;;8.52;4.78;;;11.30;99.90;;;;;;5030421;28;20057;-75
2022/07/23 03:13:56;;;;;;;6.38;4.90;;;11.40;99.90;;;;;;5039945;28;20063;-76
2022/07/23 03:16:22;;;;;;;6.90;4.57;;;11.10;99.90;;;;;;5051467;28;20098;-76
2022/07/23 03:18:47;;;;;;;12.15;5.57;;;11.00;99.90;;;;;;5051533;28;20417;-75
2022/07/23 03:21:13;;;;;;;8.18;4.22;;;11.00;99.90;;;;;;5055752;28;20119;-75
2022/07/23 03:23:39;;;;;;;10.32;4.53;;;10.90;99.90;;;;;;5071746;28;20082;-76
2022/07/23 03:26:05;;;;;;;13.02;4.95;;;10.90;99.90;;;;;;5070826;28;20478;-75
2022/07/23 03:28:30;;;;;;;14.10;5.13;;;10.80;99.90;;;;;;5071137;28;20039;-76
2022/07/23 03:30:56;;;;;;;13.75;4.82;;;10.80;99.90;;;;;;5071193;28;20426;-76
2022/07/23 03:33:22;;;;;;;10.98;4.50;;;10.90;99.90;;;;;;5070930;28;20097;-75
2022/07/23 03:35:49;;;;;;;8.13;4.10;;;10.80;99.90;;;;;;5071582;28;20040;-76
2022/07/23 03:38:15;;;;;;;5.05;3.75;;;10.80;99.90;;;;;;5070287;28;20045;-76
2022/07/23 03:40:41;;;;;;;9.00;4.55;;;10.80;99.90;;;;;;5061092;28;20163;-75
2022/07/23 03:43:07;;;;;;;8.38;4.70;;;10.80;99.90;;;;;;5050715;28;20041;-76
2022/07/23 03:45:33;;;;;;;9.25;4.88;;;10.80;99.90;;;;;;5051229;28;20107;-75
2022/07/23 03:48:00;;;;;;;7.97;4.85;;;10.80;99.90;;;;;;5050606;28;20466;-76
2022/07/23 03:50:25;;;;;;;8.73;4.00;;;10.80;99.90;;;;;;5051175;28;20033;-75
2022/07/23 03:52:51;;;;;;;9.63;3.90;;;10.80;99.90;;;;;;5051986;28;20041;-76
2022/07/23 03:55:17;;;;;;;8.60;4.72;;;10.80;99.90;;;;;;5050873;28;20077;-76
2022/07/23 03:57:43;;;;;;;15.77;4.95;;;10.80;99.90;;;;;;5061290;28;20082;-75
2022/07/23 04:00:11;;;;;;;12.80;4.45;;;10.80;99.90;;;;;;5069322;28;20468;-76
2022/07/23 04:02:37;;;;;;;13.93;4.63;;;10.80;99.90;;;;;;5070565;28;20476;-76
2022/07/23 04:05:04;;;;;;;17.33;4.07;;;10.80;99.90;;;;;;5071095;28;20071;-76
2022/07/23 04:07:29;;;;;;;13.55;3.97;;;10.80;99.90;;;;;;5070012;28;20422;-75
2022/07/23 04:09:55;;;;;;;8.70;3.60;;;10.70;99.90;;;;;;5049511;28;20060;-76
2022/07/23 04:12:21;;;;;;;7.43;3.45;;;10.70;99.90;;;;;;5050675;28;20492;-76
2022/07/23 04:14:46;;;;;;;6.70;3.50;;;10.70;99.90;;;;;;5049129;28;20068;-76
2022/07/23 04:17:12;;;;;;;11.35;3.90;;;10.70;99.90;;;;;;5050445;28;20064;-76
2022/07/23 04:19:41;;;;;;;13.75;3.55;;;10.70;99.90;;;;;;5050271;28;20044;-76
2022/07/23 04:22:08;;;;;;;10.60;3.67;;;10.70;99.90;;;;;;5060001;28;20127;-75
2022/07/23 04:24:34;;;;;;;6.53;3.38;;;10.60;99.90;;;;;;5068646;28;20056;-76
2022/07/23 04:27:00;;;;;;;11.75;3.70;;;10.80;99.90;;;;;;5070323;28;20411;-76
2022/07/23 04:29:25;;;;;;;7.25;3.42;;;10.60;99.90;;;;;;5070360;28;20044;-76
2022/07/23 04:31:51;;;;;;;7.32;3.83;;;10.70;99.90;;;;;;5056873;28;20557;-75
2022/07/23 04:34:17;;;;;;;9.02;3.80;;;10.70;99.90;;;;;;5055374;28;20407;-75
2022/07/23 04:36:43;;;;;;;10.93;4.40;;;10.80;99.90;;;;;;5070159;28;20187;-76
2022/07/23 04:39:08;;;;;;;10.00;4.63;;;10.80;99.90;;;;;;5051508;28;20387;-74
2022/07/23 04:41:34;;;;;;;15.55;5.07;;;11.30;99.90;;;;;;5048741;28;20116;-75
2022/07/23 04:44:00;;;;;;;17.23;5.80;;;11.00;99.90;;;;;;5050196;28;20145;-75
2022/07/23 04:46:26;;;;;;;15.85;5.55;;;11.10;99.90;;;;;;5049051;28;20057;-75
2022/07/23 04:48:52;;;;;;;14.45;5.85;;;11.10;99.90;;;;;;5031803;28;20059;-75
2022/07/23 04:51:17;;;;;;;11.80;5.40;;;11.20;99.90;;;;;;5052853;28;20039;-75
2022/07/23 04:53:43;;;;;;;8.57;5.07;;;11.30;99.90;;;;;;5069359;28;20055;-75
2022/07/23 04:56:09;;;;;;;18.95;5.53;;;11.30;99.90;;;;;;5070171;28;20051;-76
2022/07/23 04:58:35;;;;;;;12.18;4.88;;;11.40;99.90;;;;;;5068917;28;20052;-76
2022/07/23 05:01:01;;;;;;;13.55;5.35;;;11.40;99.90;;;;;;5069812;28;20083;-76
2022/07/23 05:03:27;;;;;;;9.80;4.50;;;11.40;99.90;;;;;;5068681;28;20080;-76
2022/07/23 05:05:52;;;;;;;12.07;5.55;;;11.50;99.90;;;;;;5069357;28;20048;-75
2022/07/23 05:08:18;;;;;;;13.88;5.30;;;11.50;99.90;;;;;;5063150;28;20095;-75
2022/07/23 05:10:43;;;;;;;13.50;5.63;;;11.60;99.90;;;;;;5049091;28;20582;-75
2022/07/23 05:13:09;;;;;;;10.80;5.55;;;11.70;99.90;;;;;;5049417;28;20056;-76
2022/07/23 05:15:35;;;;;;;11.90;5.43;;;11.60;99.90;;;;;;5050099;28;20128;-75
2022/07/23 05:18:00;;;;;;;16.20;5.43;;;11.70;99.90;;;;;;5049568;28;20045;-75
2022/07/23 05:20:26;;;;;;;18.15;6.07;;;11.70;99.90;;;;;;5049178;28;20037;-75
2022/07/23 05:22:52;;;;;;;13.32;5.78;;;11.80;99.90;;;;;;5066472;28;20505;-75
2022/07/23 05:25:18;;;;;;;12.52;5.32;;;11.90;99.90;;;;;;5067900;28;20059;-76
2022/07/23 05:27:43;;;;;;;15.00;4.93;;;11.90;99.90;;;;;;5069839;28;20045;-73
2022/07/23 05:30:09;;;;;;;19.25;7.32;;;12.00;99.90;;;;;;5069595;28;20041;-74
2022/07/23 05:32:36;;;;;;;10.95;6.10;;;12.10;99.90;;;;;;5069164;28;20044;-75
2022/07/23 05:35:03;;;;;;;26.17;6.80;;;12.50;99.90;;;;;;5069323;28;20544;-75
2022/07/23 05:37:29;;;;;;;12.40;5.97;;;12.40;99.90;;;;;;5067870;28;20040;-76
2022/07/23 05:39:54;;;;;;;13.23;5.70;;;12.50;99.90;;;;;;5053707;28;20476;-75
2022/07/23 05:42:20;;;;;;;11.13;5.50;;;12.60;99.90;;;;;;5049450;28;20567;-77
2022/07/23 05:44:46;;;;;;;11.27;5.65;;;12.90;99.90;;;;;;5049573;28;20049;-75
2022/07/23 05:47:11;;;;;;;9.05;5.28;;;13.00;99.90;;;;;;5049374;28;20041;-76
2022/07/23 05:49:38;;;;;;;11.00;5.97;;;13.10;99.90;;;;;;5049569;28;20049;-76
2022/07/23 05:52:05;;;;;;;13.95;5.55;;;13.40;99.90;;;;;;5048878;28;20051;-75
2022/07/23 05:54:30;;;;;;;15.38;5.15;;;13.40;99.90;;;;;;5048058;28;20492;-77
2022/07/23 05:56:56;;;;;;;8.95;5.00;;;13.50;99.90;;;;;;5049493;28;20053;-76
2022/07/23 05:59:22;;;;;;;8.35;4.82;;;13.60;99.90;;;;;;5049266;28;20106;-77
2022/07/23 06:01:47;;;;;;;9.95;3.70;;;13.80;99.90;;;;;;5047875;28;20056;-76
2022/07/23 06:04:13;;;;;;;6.97;3.90;;;13.90;99.90;;;;;;5049441;28;20091;-77
2022/07/23 06:06:39;;;;;;;11.18;3.67;;;14.00;99.90;;;;;;5048719;28;20763;-76
2022/07/23 06:09:04;;;;;;;13.38;3.30;;;14.40;99.90;;;;;;5051917;28;20056;-78
2022/07/23 06:11:30;;;;;;;6.55;3.28;;;14.70;99.90;;;;;;5068978;28;20075;-75
2022/07/23 06:13:55;;;;;;;7.22;3.15;;;14.50;99.90;;;;;;5056429;28;20444;-75
2022/07/23 06:16:21;;;;;;;5.07;2.53;;;14.70;99.90;;;;;;5056282;28;20056;-76
2022/07/23 06:18:47;;;;;;;4.32;2.20;;;14.80;99.90;;;;;;5049098;28;20543;-78
2022/07/23 06:21:12;;;;;;;10.75;2.45;;;15.00;99.90;;;;;;5047992;28;20055;-76
2022/07/23 06:23:38;;;;;;;5.30;1.90;;;15.20;99.90;;;;;;5048881;28;20064;-77
2022/07/23 06:26:03;;;;;;;3.17;1.40;;;15.60;99.90;;;;;;5050677;28;20049;-77
2022/07/23 06:28:29;;;;;;;4.88;1.50;;;15.90;99.90;;;;;;5052970;28;20067;-78
2022/07/23 06:30:55;;;;;;;4.90;1.40;;;15.80;99.90;;;;;;5053402;28;20052;-76
2022/07/23 06:33:20;;;;;;;6.57;1.65;;;16.00;99.90;;;;;;5052972;28;20127;-76
2022/07/23 06:35:46;;;;;;;21.45;1.50;;;16.10;99.90;;;;;;5053086;28;20135;-79
2022/07/23 06:38:12;;;;;;;6.30;1.25;;;16.20;99.90;;;;;;5052394;28;20118;-79
2022/07/23 06:40:38;;;;;;;5.43;1.00;;;16.30;99.90;;;;;;5052789;28;20162;-80
2022/07/23 06:43:04;;;;;;;4.82;1.40;;;16.30;99.90;;;;;;5052474;28;20117;-79
2022/07/23 06:45:29;;;;;;;2.10;1.00;;;16.40;99.90;;;;;;5052646;28;20476;-78
2022/07/23 06:47:55;;;;;;;3.70;1.10;;;16.50;99.90;;;;;;5052438;28;20118;-79
2022/07/23 06:50:20;;;;;;;4.20;0.90;;;16.70;99.90;;;;;;5052324;28;20432;-85
2022/07/23 06:52:46;;;;;;;5.63;1.08;;;16.80;99.90;;;;;;5052068;28;20136;-79
2022/07/23 06:55:12;;;;;;;4.65;0.80;;;17.00;99.90;;;;;;5052139;28;20045;-78
2022/07/23 06:57:38;;;;;;;2.20;0.70;;;17.20;99.90;;;;;;5052205;28;20427;-83
2022/07/23 07:00:05;;;;;;;1.73;0.50;;;17.40;99.90;;;;;;5055252;28;20047;-77
2022/07/23 07:02:33;;;;;;;3.15;0.70;;;17.50;99.90;;;;;;5072018;28;20048;-78
2022/07/23 07:04:59;;;;;;;4.60;0.85;;;17.40;99.90;;;;;;5071889;28;20050;-77
2022/07/23 07:07:25;;;;;;;1.75;0.60;;;17.70;99.90;;;;;;5065470;28;20029;-77
2022/07/23 07:09:50;;;;;;;1.88;0.50;;;17.60;99.90;;;;;;5051599;28;20175;-78
2022/07/23 07:12:16;;;;;;;3.53;0.70;;;17.70;99.90;;;;;;5051840;28;20104;-78
2022/07/23 07:14:42;;;;;;;1.05;0.50;;;17.80;99.90;;;;;;5063947;28;20162;-77
2022/07/23 07:17:08;;;;;;;2.70;0.40;;;18.10;99.90;;;;;;5071838;28;20129;-77
2022/07/23 07:19:33;;;;;;;0.80;0.32;;;18.10;99.90;;;;;;5071828;28;20434;-78
2022/07/23 07:21:59;;;;;;;3.10;0.47;;;18.10;99.90;;;;;;5070430;28;20055;-80
2022/07/23 07:24:25;;;;;;;3.45;0.68;;;18.10;99.90;;;;;;5071097;28;20078;-78
2022/07/23 07:26:50;;;;;;;2.67;0.45;;;18.30;99.90;;;;;;5070188;28;20472;-79
2022/07/23 07:29:16;;;;;;;1.73;0.35;;;18.40;99.90;;;;;;5070360;28;20053;-79
2022/07/23 07:31:42;;;;;;;3.13;0.52;;;18.30;99.90;;;;;;5070609;28;20514;-78
2022/07/23 07:34:07;;;;;;;4.88;0.30;;;18.70;99.90;;;;;;5071788;28;20411;-78
2022/07/23 07:36:33;;;;;;;1.75;0.25;;;18.60;99.90;;;;;;5070989;28;20036;-78
2022/07/23 07:38:58;;;;;;;2.20;0.50;;;18.70;99.90;;;;;;5071244;28;20519;-79
2022/07/23 07:41:26;;;;;;;2.58;0.40;;;18.80;99.90;;;;;;5071219;28;20170;-78
2022/07/23 07:43:52;;;;;;;1.13;0.30;;;18.90;99.90;;;;;;5071497;28;20045;-74
2022/07/23 07:46:17;;;;;;;1.63;0.38;;;19.00;99.90;;;;;;5071260;28;20709;-79
2022/07/23 07:48:43;;;;;;;2.08;0.40;;;19.20;99.90;;;;;;5071292;28;20097;-79
2022/07/23 07:51:09;;;;;;;1.30;0.40;;;19.20;99.90;;;;;;5071189;28;20075;-78
2022/07/23 07:53:34;;;;;;;1.52;0.40;;;19.50;99.90;;;;;;5071040;28;20037;-80
2022/07/23 07:56:00;;;;;;;3.17;0.30;;;19.60;99.90;;;;;;5070932;28;20514;-79
2022/07/23 07:58:26;;;;;;;3.45;0.43;;;19.90;99.90;;;;;;5071240;28;20430;-78
2022/07/23 08:00:51;;;;;;;1.27;0.30;;;20.20;99.90;;;;;;5069538;28;20045;-81
2022/07/23 08:03:17;;;;;;;3.83;0.55;;;20.50;99.90;;;;;;5070713;28;20049;-80
2022/07/23 08:05:43;;;;;;;1.30;0.40;;;20.70;99.90;;;;;;5071027;28;20045;-81
2022/07/23 08:08:14;;;;;;;2.90;0.40;;;20.80;99.90;;;;;;5070663;28;20598;-80
2022/07/23 08:10:40;;;;;;;2.50;0.40;;;20.90;99.90;;;;;;5070001;28;20403;-81
2022/07/23 08:13:06;;;;;;;3.03;0.68;;;20.90;99.90;;;;;;5070421;28;20061;-79
2022/07/23 08:15:32;;;;;;;2.97;0.57;;;20.90;99.90;;;;;;5070503;28;20048;-80
2022/07/23 08:17:58;;;;;;;1.02;0.40;;;20.90;99.90;;;;;;5070618;28;20059;-79
2022/07/23 08:20:25;;;;;;;0.93;0.30;;;20.80;99.90;;;;;;5070412;28;20124;-80
2022/07/23 08:22:55;;;;;;;3.78;0.60;;;20.80;99.90;;;;;;5069108;28;20041;-80
2022/07/23 08:25:24;;;;;;;2.20;0.47;;;20.90;99.90;;;;;;5070200;28;20617;-82
2022/07/23 08:27:51;;;;;;;0.88;0.40;;;20.60;99.90;;;;;;5070102;28;20036;-78
2022/07/23 08:30:18;;;;;;;2.78;0.30;;;20.50;99.90;;;;;;5068999;28;20102;-79
2022/07/23 08:32:51;;;;;;;1.85;0.30;;;20.30;99.90;;;;;;5070451;28;20056;-78
2022/07/23 08:35:21;;;;;;;0.50;0.30;;;20.30;99.90;;;;;;5070234;28;20173;-81
2022/07/23 08:37:47;;;;;;;1.85;0.40;;;20.30;99.90;;;;;;5061035;28;20055;-79
2022/07/23 08:40:13;;;;;;;1.45;0.38;;;20.40;99.90;;;;;;5050484;28;20053;-78
2022/07/23 08:42:39;;;;;;;2.33;0.50;;;20.80;99.90;;;;;;5049966;28;20049;-80
2022/07/23 08:45:08;;;;;;;2.20;0.45;;;20.70;99.90;;;;;;5050146;28;20049;-80
2022/07/23 08:47:36;;;;;;;2.58;0.40;;;20.70;99.90;;;;;;5049783;28;20041;-80
2022/07/23 08:50:02;;;;;;;2.92;1.02;;;20.70;99.90;;;;;;5065002;28;20052;-81
2022/07/23 08:52:30;;;;;;;3.25;0.55;;;20.60;99.90;;;;;;5066863;28;20509;-77
2022/07/23 08:54:57;;;;;;;1.45;0.60;;;20.50;99.90;;;;;;5039374;28;20044;-82
2022/07/23 08:57:22;;;;;;;3.75;0.40;;;20.30;99.90;;;;;;5049791;28;20085;-80
2022/07/23 08:59:48;;;;;;;3.95;0.70;;;20.30;99.90;;;;;;5048903;28;20549;-81
2022/07/23 09:02:13;;;;;;;3.58;0.60;;;20.20;99.90;;;;;;5047275;28;20043;-79
2022/07/23 09:04:39;;;;;;;1.08;0.30;;;20.20;99.90;;;;;;5030140;28;20089;-82
2022/07/23 09:07:05;;;;;;;3.03;0.40;;;20.10;99.90;;;;;;5038895;28;20120;-83
2022/07/23 09:09:31;;;;;;;2.03;0.35;;;20.10;99.90;;;;;;5069888;28;20139;-82
2022/07/23 09:12:08;;;;;;;1.85;0.30;;;20.10;99.90;;;;;;5068574;28;20394;-79
2022/07/23 09:14:46;;;;;;;2.78;0.60;;;20.10;99.90;;;;;;5069424;28;20079;-81
2022/07/23 09:17:17;;;;;;;2.80;0.60;;;20.30;99.90;;;;;;5061521;28;20045;-77
2022/07/23 09:19:44;;;;;;;2.58;0.55;;;20.20;99.90;;;;;;5049590;28;20076;-80
2022/07/23 09:22:23;;;;;;;3.50;0.47;;;20.20;99.90;;;;;;5049686;28;20053;-80
2022/07/23 09:25:07;;;;;;;1.52;0.40;;;20.10;99.90;;;;;;5049564;28;20528;-79
2022/07/23 09:27:56;;;;;;;1.85;0.45;;;20.20;99.90;;;;;;5049786;28;20120;-80
2022/07/23 09:30:24;;;;;;;2.25;0.50;;;20.30;99.90;;;;;;5031742;28;20061;-80
2022/07/23 09:33:08;;;;;;;4.03;0.68;;;20.40;99.90;;;;;;5049454;28;20040;-79
2022/07/23 09:35:47;;;;;;;3.83;0.40;;;20.50;99.90;;;;;;5049575;28;20079;-79
2022/07/23 09:38:13;;;;;;;2.92;0.50;;;20.50;99.90;;;;;;5049393;28;20139;-81
2022/07/23 09:40:39;;;;;;;5.43;0.63;;;20.70;99.90;;;;;;5052691;28;20044;-78
2022/07/23 09:43:04;;;;;;;0.85;0.32;;;20.90;99.90;;;;;;5039465;28;20400;-79
2022/07/23 09:45:30;;;;;;;0.57;0.28;;;20.80;99.90;;;;;;5027738;28;20546;-80
2022/07/23 09:48:16;;;;;;;2.38;0.50;;;20.80;99.90;;;;;;5029673;28;20046;-78
2022/07/23 09:50:42;;;;;;;2.95;0.43;;;20.70;99.90;;;;;;5029844;28;20091;-80
2022/07/23 09:53:09;;;;;;;2.92;0.63;;;20.50;99.90;;;;;;5029703;28;20572;-80
2022/07/23 09:55:37;;;;;;;7.63;0.73;;;20.50;99.90;;;;;;5029487;28;20087;-78
2022/07/23 09:58:12;;;;;;;1.65;0.32;;;20.30;99.90;;;;;;5029626;28;20108;-82
2022/07/23 10:00:38;;;;;;;4.20;0.80;;;20.40;99.90;;;;;;5032745;28;20124;-80
2022/07/23 10:03:06;;;;;;;3.47;0.50;;;20.40;99.90;;;;;;5033264;28;20045;-77
2022/07/23 10:05:34;;;;;;;1.60;0.47;;;20.30;99.90;;;;;;5033229;28;20037;-80
2022/07/23 10:08:02;;;;;;;3.33;0.60;;;20.50;99.90;;;;;;5033126;28;20049;-80
2022/07/23 10:10:29;;;;;;;4.07;0.60;;;20.60;99.90;;;;;;5032787;28;20520;-79
2022/07/23 10:13:15;;;;;;;2.55;0.60;;;20.60;99.90;;;;;;5033067;28;20455;-80
2022/07/23 10:15:41;;;;;;;3.55;0.30;;;20.80;99.90;;;;;;5032712;28;20471;-78
2022/07/23 10:18:11;;;;;;;3.58;0.60;;;20.90;99.90;;;;;;5033063;28;20081;-78
2022/07/23 10:20:38;;;;;;;3.03;0.55;;;21.00;99.90;;;;;;5031600;28;20049;-78
2022/07/23 10:23:12;;;;;;;4.45;0.55;;;21.00;99.90;;;;;;5031362;28;20093;-79
2022/07/23 10:25:58;;;;;;;;;;;21.00;99.90;;;;;;5033368;28;20454;-78
2022/07/23 10:28:32;;;;;;;1.92;0.50;;;20.90;99.90;;;;;;5032212;28;20403;-79
2022/07/23 10:31:17;;;;;;;2.72;0.60;;;20.90;99.90;;;;;;5032543;28;20056;-79
2022/07/23 10:34:11;;;;;;;1.48;0.65;;;20.70;99.90;;;;;;5033036;28;20053;-78
2022/07/23 10:36:49;;;;;;;6.65;1.20;;;20.70;99.90;;;;;;5031591;28;20128;-79
2022/07/23 10:39:24;;;;;;;2.33;0.50;;;20.80;99.90;;;;;;5032542;28;20064;-79
2022/07/23 10:41:51;;;;;;;3.28;0.65;;;20.80;99.90;;;;;;5032318;28;20034;-81
2022/07/23 10:44:22;;;;;;;3.60;0.65;;;20.70;99.90;;;;;;5041564;28;20554;-81
2022/07/23 10:49:48;;;;;;;2.40;0.70;;;20.80;99.90;;;;;;5057686;28;20151;-79
2022/07/23 10:52:13;;;;;;;3.65;0.73;;;20.70;99.90;;;;;;5052562;28;20500;-80
2022/07/23 10:54:57;;;;;;;4.53;0.88;;;20.70;99.90;;;;;;5052263;28;20080;-80
2022/07/23 10:57:27;;;;;;;5.55;0.90;;;20.60;99.90;;;;;;5052167;28;20053;-81
2022/07/23 11:00:11;;;;;;;8.18;0.90;;;20.50;99.90;;;;;;5052065;28;20499;-79
2022/07/23 11:02:39;;;;;;;2.28;0.57;;;20.50;99.90;;;;;;5051745;28;20041;-83
2022/07/23 11:05:10;;;;;;;4.25;1.00;;;20.50;99.90;;;;;;5051909;28;20048;-84
2022/07/23 11:07:57;;;;;;;1.85;0.90;;;20.50;99.90;;;;;;5055146;28;20056;-78
2022/07/23 11:10:41;;;;;;;0.88;0.60;;;20.50;99.90;;;;;;5042547;28;20061;-80
2022/07/23 11:13:22;;;;;;;4.90;0.70;;;20.70;99.90;;;;;;5051997;28;20095;-81
2022/07/23 11:16:04;;;;;;;3.05;0.70;;;20.90;99.90;;;;;;5050637;28;20079;-81
2022/07/23 11:18:42;;;;;;;2.55;0.60;;;21.00;99.90;;;;;;5051425;28;20049;-80
2022/07/23 11:21:23;;;;;;;3.15;0.70;;;21.00;99.90;;;;;;5050609;28;20080;-82
2022/07/23 11:24:03;;;;;;;4.22;0.85;;;21.30;99.90;;;;;;5051479;28;20045;-82
2022/07/23 11:26:43;;;;;;;4.35;0.77;;;21.40;99.90;;;;;;5051710;28;20079;-83
2022/07/23 11:29:35;;;;;;;4.88;1.33;;;21.30;99.90;;;;;;5051589;28;20557;-78
2022/07/23 11:32:17;;;;;;;1.95;0.60;;;21.20;99.90;;;;;;5056665;28;20138;-80
2022/07/23 11:34:47;;;;;;;2.72;0.80;;;21.60;99.90;;;;;;5071448;28;20059;-79
2022/07/23 11:37:37;;;;;;;3.97;0.70;;;21.70;99.90;;;;;;5070337;28;20471;-80
2022/07/23 11:40:10;;;;;;;2.83;0.75;;;22.00;99.90;;;;;;5064799;28;20045;-80
2022/07/23 11:42:51;;;;;;;2.33;0.95;;;22.30;99.90;;;;;;5030028;28;20041;-83
2022/07/23 11:45:16;;;;;;;5.28;0.77;;;22.10;99.90;;;;;;5040168;28;20098;-82
2022/07/23 11:47:42;;;;;;;2.35;0.52;;;22.10;99.90;;;;;;5051410;28;20438;-83
2022/07/23 11:50:08;;;;;;;3.17;1.00;;;21.90;99.90;;;;;;5049705;28;20056;-82
2022/07/23 11:52:34;;;;;;;2.95;0.80;;;21.90;99.90;;;;;;5050941;28;20411;-79
2022/07/23 11:55:03;;;;;;;3.28;0.80;;;22.00;99.90;;;;;;5051350;28;20033;-80
2022/07/23 11:57:31;;;;;;;2.53;0.85;;;22.10;99.90;;;;;;5050837;28;20522;-80
2022/07/23 12:00:12;;;;;;;1.73;0.68;;;22.30;99.90;;;;;;5051004;28;20036;-81
2022/07/23 12:02:43;;;;;;;3.70;0.90;;;22.40;99.90;;;;;;5031104;28;20486;-81
2022/07/23 12:05:17;;;;;;;3.72;1.02;;;22.10;99.90;;;;;;5046291;28;20049;-81
2022/07/23 12:07:49;;;;;;;2.95;1.20;;;22.10;99.90;;;;;;5050142;28;20047;-82
2022/07/23 12:10:41;;;;;;;4.80;1.13;;;22.10;99.90;;;;;;5049728;28;20057;-81
2022/07/23 12:13:20;;;;;;;2.97;0.70;;;21.80;99.90;;;;;;5050679;28;20503;-80
2022/07/23 12:15:51;;;;;;;2.58;0.80;;;21.90;99.90;;;;;;5050660;28;20041;-83
2022/07/23 12:18:20;;;;;;;4.95;0.90;;;21.90;99.90;;;;;;5050513;28;20056;-79
2022/07/23 12:20:49;;;;;;;3.55;1.00;;;22.10;99.90;;;;;;5050024;28;20049;-80
2022/07/23 12:23:17;;;;;;;2.20;1.10;;;22.20;99.90;;;;;;5050523;28;20065;-79
2022/07/23 12:25:45;;;;;;;1.50;0.80;;;22.20;99.90;;;;;;5060921;28;20063;-79
2022/07/23 12:28:16;;;;;;;3.78;0.85;;;22.40;99.90;;;;;;5066889;28;20041;-80
2022/07/23 12:30:51;;;;;;;2.83;0.82;;;22.90;99.90;;;;;;5050445;28;20045;-79
2022/07/23 12:33:31;;;;;;;5.22;0.95;;;22.90;99.90;;;;;;5050317;28;20059;-79
2022/07/23 12:36:00;;;;;;;3.63;1.10;;;23.00;99.90;;;;;;5050210;28;20376;-82
2022/07/23 12:38:27;;;;;;;3.17;0.68;;;23.10;99.90;;;;;;5050576;28;20049;-79
2022/07/23 12:40:55;;;;;;;2.85;0.90;;;23.00;99.90;;;;;;5070187;28;20144;-86
2022/07/23 12:43:32;;;;;;;2.67;0.73;;;23.20;99.90;;;;;;5070240;28;20044;-84
2022/07/23 12:46:11;;;;;;;4.13;0.80;;;23.40;99.90;;;;;;5069956;28;20422;-81
2022/07/23 12:48:49;;;;;;;2.53;0.75;;;23.50;99.90;;;;;;5070214;28;20161;-81
2022/07/23 12:51:22;;;;;;;1.85;0.68;;;23.30;99.90;;;;;;5069824;28;20521;-80
2022/07/23 12:53:51;;;;;;;2.63;0.60;;;23.20;99.90;;;;;;5068727;28;20136;-82